Latest Coastal Weather Observations for Whyalla

IDS60701

Issued at 3:05 am CDT Wednesday 22 October 2014 (issued every 10 minutes, with the page automatically refreshed every 10 minutes)

About coastal observations | Map of coastal stations | Coastal observations for SA | Marine services | Other Formats
Station Details ID: 018120 Name: WHYALLA AERO Lat: -33.05 Lon: 137.52 Height: 6.5 m
Data from the previous 72 hours. | See also: Recent months at Whyalla
Date/Time
CDT
Temp

°C
Wind Pressure Rain
since 9am
mm
Weather Cloud Vis
km
Sea
Height
m
Swell
Dir
 
Speed
knots
Gust
knots
hPa Trend Height
m
Period
s
Dir
22/03:00am 23.0 S 5 7 1014.5 - 0.0 - Partly cloudy 10 - - - -
22/02:30am 22.3 N 5 6 1014.6 - 0.0 - - 10 - - - -
22/02:00am 22.6 NW 2 4 1014.2 - 0.0 - - 10 - - - -
22/01:30am 22.6 NW 3 5 1014.4 - 0.0 - - 10 - - - -
22/01:00am 22.6 WNW 6 7 1014.7 - 0.0 - - 10 - - - -
22/12:30am 23.3 NW 5 7 1015.0 - 0.0 - - 10 - - - -
22/12:00am 23.2 NW 5 6 1015.2 - 0.0 - Cloudy 10 - - - -
 
Date/Time
CDT
Temp

°C
Wind Pressure Rain
since 9am
mm
Weather Cloud Vis
km
Sea
Height
m
Swell
Dir
 
Speed
knots
Gust
knots
hPa Trend Height
m
Period
s
Dir
21/11:30pm 24.5 CALM 0 2 1015.2 - 0.0 - - 10 - - - -
21/11:00pm 25.8 NNW 5 7 1015.3 - 0.0 - - 10 - - - -
21/10:30pm 26.0 NNW 5 7 1015.5 - 0.0 - - 10 - - - -
21/10:00pm 30.0 NE 4 5 1015.4 - 0.0 - - 10 - - - -
21/09:30pm 32.8 NNW 3 5 1015.4 - 0.0 - - 10 - - - -
21/09:00pm 34.3 NW 10 14 1015.5 - 0.0 - Cloudy 10 - - - -
21/08:30pm 34.0 NW 5 8 1015.3 - 0.0 - Partly cloudy 10 - - - -
21/08:12pm 34.8 W 15 19 1015.0 - 0.0 - - 10 - - - -
21/08:00pm 30.7 WSW 1 5 1015.0 - 0.0 - - 10 - - - -
21/07:30pm 32.3 N 4 6 1014.7 - 0.0 - - 10 - - - -
21/07:00pm 34.6 NW 6 7 1014.4 - 0.0 - - 10 - - - -
21/06:30pm 36.0 NW 6 9 1014.2 - 0.0 - - 10 - - - -
21/06:00pm 36.6 N 10 13 1014.2 - 0.0 - Mostly cloudy 10 - - - -
21/05:30pm 36.9 N 9 15 1014.2 - 0.0 - - 10 - - - -
21/05:00pm 37.7 NNE 13 18 1014.3 - 0.0 - - 10 - - - -
21/04:30pm 37.8 N 13 17 1014.5 - 0.0 - - 10 - - - -
21/04:00pm 38.1 NW 8 13 1014.7 - 0.0 - - 10 - - - -
21/03:30pm 38.0 NNW 9 12 1015.0 - 0.0 - - 10 - - - -
21/03:00pm 37.1 NNW 20 30 1015.4 - 0.0 - Mostly cloudy 10 - - - -
21/02:44pm 38.4 NNW 15 26 1015.4 - 0.0 - - 10 - - - -
21/02:30pm 37.4 NNW 12 19 1015.7 - 0.0 - - 10 - - - -
21/02:00pm 37.4 N 16 23 1016.1 - 0.0 - - 10 - - - -
21/01:30pm 38.3 NW 18 26 1016.4 - 0.0 - - 10 - - - -
21/01:27pm 37.8 NW 15 26 1016.3 - 0.0 - - 10 - - - -
21/01:00pm 36.9 NNW 15 21 1016.7 - 0.0 - - 10 - - - -
21/12:30pm 37.3 N 18 27 1017.2 - 0.0 - - 10 - - - -
21/12:10pm 38.4 N 15 25 1017.3 - 0.0 - - 10 - - - -
21/12:00pm 38.1 N 14 20 1017.4 - 0.0 - Mostly clear 10 - - - -
21/11:47am 37.1 NNW 17 27 1017.5 - 0.0 - - 10 - - - -
21/11:30am 36.4 N 17 22 1017.7 - 0.0 - - 10 - - - -
21/11:00am 35.1 N 15 22 1017.8 - 0.0 - - 10 - - - -
21/10:30am 35.7 N 14 21 1017.9 - 0.0 - - 10 - - - -
21/10:00am 34.7 N 11 16 1017.8 - 0.0 - - 10 - - - -
21/09:30am 33.0 NNE 7 12 1017.8 - 0.0 - - 10 - - - -
21/09:00am 31.4 NNE 9 13 1017.8 - 0.0 - Mostly clear 10 - - - -
21/08:30am 29.4 NE 4 9 1017.9 - 0.0 - - 10 - - - -
21/08:00am 25.3 W 3 5 1017.9 - 0.0 - - 10 - - - -
21/07:30am 24.2 W 5 6 1017.6 - 0.0 - - 10 - - - -
21/07:00am 21.3 CALM 0 0 1017.2 - 0.0 - - 10 - - - -
21/06:30am 25.4 NNE 3 5 1016.8 - 0.0 - - 10 - - - -
21/06:00am 25.9 NNE 6 8 1016.5 - 0.0 - Mostly cloudy 10 - - - -
21/05:30am 26.3 NE 7 9 1016.2 - 0.0 - - 10 - - - -
21/05:00am 26.7 NNE 8 11 1016.2 - 0.0 - - 10 - - - -
21/04:30am 26.6 NE 8 11 1016.0 - 0.0 - - 10 - - - -
21/04:10am 24.8 NNE 6 11 1015.9 - 0.0 - - 10 - - - -
21/04:00am 19.5 ENE 5 6 1016.0 - 0.0 - - 10 - - - -
21/03:30am 17.8 NNE 3 3 1016.2 - 0.0 - - 10 - - - -
21/03:00am 19.0 NNE 4 5 1016.7 - 0.0 - Mostly clear 10 - - - -
21/02:30am 20.8 N 3 4 1017.0 - 0.0 - - 10 - - - -
21/02:00am 20.4 W 8 10 1017.3 - 0.0 - - 10 - - - -
21/01:30am 21.0 E 2 4 1017.4 - 0.0 - - 10 - - - -
21/01:00am 21.3 W 2 5 1017.7 - 0.0 - - 10 - - - -
21/12:30am 24.0 E 1 3 1017.8 - 0.0 - - 10 - - - -
21/12:00am 24.8 ENE 5 7 1018.1 - 0.0 - - 10 - - - -
 
Date/Time
CDT
Temp

°C
Wind Pressure Rain
since 9am
mm
Weather Cloud Vis
km
Sea
Height
m
Swell
Dir
 
Speed
knots
Gust
knots
hPa Trend Height
m
Period
s
Dir
20/11:30pm 26.0 ENE 7 10 1018.1 - 0.0 - - 10 - - - -
20/11:00pm 25.8 E 10 13 1018.1 - 0.0 - - 10 - - - -
20/10:30pm 24.6 ENE 9 11 1018.2 - 0.0 - - 10 - - - -
20/10:00pm 25.1 E 7 10 1018.2 - 0.0 - - 10 - - - -
20/09:30pm 21.3 S 4 5 1018.1 - 0.0 - - 10 - - - -
20/09:00pm 22.3 ESE 1 4 1017.9 - 0.0 - - 10 - - - -
20/08:30pm 23.0 S 3 5 1017.8 - 0.0 - - 10 - - - -
20/08:00pm 24.2 S 4 5 1017.4 - 0.0 - - 10 - - - -
20/07:30pm 26.2 ESE 4 6 1016.8 - 0.0 - - 10 - - - -
20/07:00pm 29.1 E 7 10 1016.4 - 0.0 - - 10 - - - -
20/06:30pm 31.8 ESE 8 11 1016.2 - 0.0 - - 10 - - - -
20/06:00pm 33.2 ESE 9 15 1016.1 - 0.0 - - 10 - - - -
20/05:30pm 33.3 ESE 10 16 1016.2 - 0.0 - - 10 - - - -
20/05:00pm 34.2 ESE 11 15 1016.2 - 0.0 - - 10 - - - -
20/04:30pm 33.6 ESE 11 15 1016.5 - 0.0 - - 10 - - - -
20/04:00pm 34.3 ESE 11 15 1016.8 - 0.0 - - 10 - - - -
20/03:30pm 33.3 ESE 11 15 1017.2 - 0.0 - - 10 - - - -
20/03:00pm 31.3 ESE 9 13 1017.7 - 0.0 - - 10 - - - -
20/02:30pm 30.3 SE 9 12 1018.3 - 0.0 - - 10 - - - -
20/02:00pm 29.4 SE 10 12 1018.9 - 0.0 - - 10 - - - -
20/01:30pm 29.7 SSE 9 12 1019.4 - 0.0 - - 10 - - - -
20/01:00pm 28.7 SE 8 10 1019.9 - 0.0 - - 10 - - - -
20/12:30pm 28.4 SE 8 10 1020.3 - 0.0 - - 10 - - - -
20/12:00pm 27.6 SSE 8 11 1020.6 - 0.0 - - 10 - - - -
20/11:30am 26.8 S 8 11 1021.0 - 0.0 - - 10 - - - -
20/11:00am 25.3 S 6 9 1021.4 - 0.0 - - 10 - - - -
20/10:30am 23.6 S 7 10 1021.6 - 0.0 - - 10 - - - -
20/10:00am 23.6 S 6 8 1021.7 - 0.0 - - 10 - - - -
20/09:30am 21.8 SSW 7 9 1021.5 - 0.0 - - 10 - - - -
20/09:00am 21.3 SSW 6 7 1021.6 - 0.0 - - 10 - - - -
20/08:30am 19.5 SSW 6 8 1021.4 - 0.0 - - 10 - - - -
20/08:00am 15.6 CALM 0 3 1021.3 - 0.0 - - 10 - - - -
20/07:30am 13.0 NNW 5 6 1021.2 - 0.0 - - 10 - - - -
20/07:00am 12.3 WNW 2 4 1021.1 - 0.0 - - 10 - - - -
20/06:30am 14.5 SSW 4 7 1020.9 - 0.0 - - 10 - - - -
20/06:00am 13.9 SSW 3 6 1020.6 - 0.0 - - 10 - - - -
20/05:30am 13.6 WSW 4 5 1020.3 - 0.0 - - 10 - - - -
20/05:00am 13.6 SW 2 4 1020.2 - 0.0 - - 10 - - - -
20/04:30am 13.7 W 3 5 1020.1 - 0.0 - - 10 - - - -
20/04:00am 15.1 SSW 5 7 1020.0 - 0.0 - - 10 - - - -
20/03:30am 15.8 SW 7 9 1020.1 - 0.0 - - 10 - - - -
20/03:00am 15.8 SSW 8 10 1020.1 - 0.0 - - 10 - - - -
20/02:30am 16.4 S 9 12 1020.2 - 0.0 - - 10 - - - -
20/02:00am 16.4 SSW 8 11 1020.4 - 0.0 - - 10 - - - -
20/01:30am 16.9 S 10 14 1020.7 - 0.0 - - 10 - - - -
20/01:00am 17.3 SSW 9 12 1020.9 - 0.0 - - 10 - - - -
20/12:30am 17.9 SSW 9 12 1020.8 - 0.0 - - 10 - - - -
20/12:00am 18.3 SSW 11 15 1020.7 - 0.0 - - 10 - - - -
 
Date/Time
CDT
Temp

°C
Wind Pressure Rain
since 9am
mm
Weather Cloud Vis
km
Sea
Height
m
Swell
Dir
 
Speed
knots
Gust
knots
hPa Trend Height
m
Period
s
Dir
19/11:30pm 18.5 SSW 10 13 1020.9 - 0.0 - - 10 - - - -
19/11:00pm 18.9 SSW 8 11 1020.7 - 0.0 - - 10 - - - -
19/10:30pm 19.4 SSW 10 13 1020.7 - 0.0 - - 10 - - - -
19/10:00pm 19.8 S 10 13 1020.5 - 0.0 - - 10 - - - -
19/09:30pm 20.4 S 11 12 1020.5 - 0.0 - - 10 - - - -
19/09:00pm 21.4 S 11 14 1019.8 - 0.0 - - 10 - - - -
19/08:30pm 21.8 S 10 13 1019.5 - 0.0 - - 10 - - - -
19/08:00pm 22.7 S 13 18 1019.1 - 0.0 - - 10 - - - -
19/07:30pm 23.2 S 14 22 1018.5 - 0.0 - - 10 - - - -
19/07:29pm 23.4 S 13 21 1018.5 - 0.0 - - 10 - - - -
19/07:00pm 28.6 E 6 9 1017.6 - 0.0 - - 10 - - - -
19/06:30pm 30.5 E 9 12 1017.3 - 0.0 - - 10 - - - -
19/06:00pm 31.4 E 12 17 1017.1 - 0.0 - - 10 - - - -
19/05:30pm 32.4 E 10 14 1017.0 - 0.0 - - 10 - - - -
19/05:00pm 31.9 E 10 13 1017.0 - 0.0 - - 10 - - - -
19/04:30pm 33.9 E 10 13 1016.8 - 0.0 - - 10 - - - -
19/04:00pm 35.0 NW 7 15 1017.2 - 0.0 - - 10 - - - -
19/03:30pm 35.1 NW 7 15 1017.4 - 0.0 - - 10 - - - -
19/03:00pm 35.2 NNW 9 17 1017.5 - 0.0 - - 10 - - - -
19/02:30pm 34.2 N 9 13 1017.8 - 0.0 - - 10 - - - -
19/02:00pm 34.9 N 9 13 1018.1 - 0.0 - - 10 - - - -
19/01:30pm 33.7 N 12 18 1018.6 - 0.0 - - 10 - - - -
19/01:00pm 33.4 NNW 12 17 1018.9 - 0.0 - - 10 - - - -
19/12:30pm 34.1 NNW 14 20 1019.0 - 0.0 - - 10 - - - -
19/12:00pm 32.9 N 14 21 1019.3 - 0.0 - - 10 - - - -
19/11:30am 32.5 N 16 22 1019.6 - 0.0 - - 10 - - - -
19/11:00am 31.4 NNW 16 23 1019.9 - 0.0 - - 10 - - - -
19/10:30am 31.0 N 17 23 1019.9 - 0.0 - - 10 - - - -
19/10:00am 29.8 N 16 21 1020.1 - 0.0 - - 10 - - - -
19/09:30am 29.0 N 16 20 1019.9 - 0.0 - - 10 - - - -
19/09:00am 27.9 N 14 17 1019.8 - 0.0 - - 10 - - - -
19/08:30am 25.3 N 11 16 1019.6 - 0.0 - - 10 - - - -
19/08:00am 22.6 NNW 10 14 1019.5 - 0.0 - - 10 - - - -
19/07:30am 21.4 NNW 10 13 1019.4 - 0.0 - - 10 - - - -
19/07:00am 20.7 NNW 10 12 1018.7 - 0.0 - - 10 - - - -
19/06:30am 19.5 NNW 8 9 1018.5 - 0.0 - - 10 - - - -
19/06:00am 22.3 N 11 16 1017.7 - 0.0 - - 10 - - - -
19/05:30am 21.1 N 9 11 1017.4 - 0.0 - - 10 - - - -
19/05:00am 21.3 N 9 12 1017.4 - 0.0 - - 10 - - - -
19/04:30am 18.7 NNW 7 8 1017.6 - 0.0 - - 10 - - - -
19/04:00am 17.9 NW 5 7 1017.8 - 0.0 - - 10 - - - -
19/03:30am 17.1 NW 9 10 1018.0 - 0.0 - - 10 - - - -

Other Formats:

Comma delimited format used in spreadsheet applications
http://www.bom.gov.au/fwo/IDS60701/IDS60701.95664.axf

JavaScript Object Notation format (JSON) in row-major order
http://www.bom.gov.au/fwo/IDS60701/IDS60701.95664.json